createdAt,value
2023-05-02T00:08:35.182Z,10.9
2023-05-02T00:18:37.849Z,10.7
2023-05-02T00:28:40.108Z,10.5
2023-05-02T00:38:42.026Z,10.5
2023-05-02T00:48:43.863Z,10.3
2023-05-02T01:08:48.298Z,9.9
2023-05-02T01:18:50.867Z,9.9
2023-05-02T01:28:53.601Z,9.8
2023-05-02T01:38:55.350Z,9.7
2023-05-02T01:48:57.267Z,9.7
2023-05-02T01:58:59.297Z,9.7
2023-05-02T02:09:01.395Z,9.7
2023-05-02T02:19:03.838Z,9.7
2023-05-02T02:29:05.886Z,9.8
2023-05-02T02:39:08.312Z,9.9
2023-05-02T02:49:10.759Z,9.9
2023-05-02T02:59:12.448Z,9.8
2023-05-02T03:09:14.889Z,9.8
2023-05-02T03:19:16.764Z,9.9
2023-05-02T03:29:19.388Z,9.9
2023-05-02T03:39:22.054Z,9.9
2023-05-02T03:49:24.653Z,9.9
2023-05-02T03:59:26.464Z,10
2023-05-02T04:09:28.335Z,10
2023-05-02T04:19:30.295Z,10
2023-05-02T04:29:32.441Z,9.8
2023-05-02T04:39:34.817Z,9.7
2023-05-02T04:49:37.188Z,9.7
2023-05-02T04:59:39.450Z,9.6
2023-05-02T05:09:41.896Z,9.5
2023-05-02T05:19:44.149Z,9.4
2023-05-02T05:29:46.289Z,9.1
2023-05-02T05:39:48.361Z,9.2
2023-05-02T05:59:53.138Z,9.6
2023-05-02T06:09:55.183Z,9.6
2023-05-02T06:19:57.575Z,9.7
2023-05-02T06:30:09.159Z,9.8
2023-05-02T06:40:10.928Z,9.7
2023-05-02T06:50:12.833Z,9.9
2023-05-02T07:00:15.229Z,9.9
2023-05-02T07:10:17.519Z,9.6
2023-05-02T07:20:19.721Z,8.6
2023-05-02T07:30:22.180Z,8.2
2023-05-02T07:40:24.630Z,8
2023-05-02T07:50:27.073Z,7.3
2023-05-02T08:00:28.886Z,7.4
2023-05-02T08:10:30.745Z,6.8
2023-05-02T08:20:32.658Z,7.2
2023-05-02T08:30:34.708Z,7.5
2023-05-02T08:40:41.943Z,7.6
2023-05-02T08:50:39.602Z,7.4
2023-05-02T09:00:41.589Z,7.7
2023-05-02T09:10:43.442Z,7.8
2023-05-02T09:20:45.488Z,8.1
2023-05-02T09:30:47.324Z,8.5
2023-05-02T09:40:49.521Z,8.6
2023-05-02T09:50:51.870Z,9
2023-05-02T10:00:53.881Z,9.2
2023-05-02T10:10:56.286Z,9.3
2023-05-02T10:20:58.850Z,9.4
2023-05-02T10:31:00.588Z,9.3
2023-05-02T10:41:03.174Z,9.6
2023-05-02T10:51:04.995Z,9.8
2023-05-02T11:01:07.419Z,10.1
2023-05-02T11:11:10.004Z,10.6
2023-05-02T11:21:12.142Z,10.2
2023-05-02T11:41:17.290Z,10.6
2023-05-02T11:51:19.247Z,10.8
2023-05-02T12:01:21.027Z,10.5
2023-05-02T12:11:23.639Z,10.7
2023-05-02T12:21:25.731Z,11.1
2023-05-02T12:31:27.600Z,10.3
2023-05-02T12:41:30.093Z,10.6
2023-05-02T12:51:32.225Z,11.1
2023-05-02T13:01:34.581Z,11.6
2023-05-02T13:11:36.753Z,11.2
2023-05-02T13:21:39.168Z,11.9
2023-05-02T13:31:41.504Z,12.1
2023-05-02T13:41:44.117Z,11.4
2023-05-02T13:51:46.446Z,11.8
2023-05-02T14:01:48.189Z,11.4
2023-05-02T14:11:50.280Z,11.5
2023-05-02T14:31:54.720Z,11.3
2023-05-02T14:41:56.781Z,12.3
2023-05-02T14:51:58.856Z,11.8
2023-05-02T15:02:00.751Z,11.9
2023-05-02T15:12:02.912Z,12.2
2023-05-02T15:22:04.991Z,12.4
2023-05-02T15:32:06.736Z,12.4
2023-05-02T15:42:08.483Z,12.3
2023-05-02T16:02:13.596Z,13.5
2023-05-02T16:12:15.805Z,12.4
2023-05-02T16:22:18.262Z,13
2023-05-02T16:32:20.235Z,12.4
2023-05-02T16:42:22.281Z,12.1
2023-05-02T16:52:24.375Z,12
2023-05-02T17:02:26.185Z,11.8
2023-05-02T17:12:28.745Z,11.1
2023-05-02T17:22:30.564Z,11
2023-05-02T17:32:32.322Z,11
2023-05-02T17:42:34.662Z,11
2023-05-02T17:52:36.394Z,11.1
2023-05-02T18:02:38.551Z,11.1
2023-05-02T18:12:40.808Z,10.6
2023-05-02T18:22:43.042Z,10.4
2023-05-02T18:32:44.909Z,10.3
2023-05-02T18:42:46.771Z,10.3
2023-05-02T18:52:48.906Z,9.9
2023-05-02T19:02:51.487Z,9.6
2023-05-02T19:12:53.849Z,9.4
2023-05-02T19:23:07.503Z,9.1
2023-05-02T19:32:58.124Z,8.9
2023-05-02T19:43:00.471Z,8.7
2023-05-02T19:53:02.790Z,8.5
2023-05-02T20:03:04.790Z,8.5
2023-05-02T20:13:06.906Z,8.3
2023-05-02T20:23:08.747Z,8.2
2023-05-02T20:33:15.857Z,8
2023-05-02T20:43:12.897Z,7.9
2023-05-02T20:53:15.016Z,7.7
2023-05-02T21:03:16.935Z,7.6
2023-05-02T21:13:19.096Z,7.5
2023-05-02T21:23:21.260Z,7.4
2023-05-02T21:33:23.945Z,6.8
2023-05-02T21:43:26.507Z,6.8
2023-05-02T21:53:29.001Z,6.8
2023-05-02T22:03:31.052Z,6.6
2023-05-02T22:13:32.649Z,6.4
2023-05-02T22:23:34.645Z,6.1
2023-05-02T22:33:36.802Z,6
2023-05-02T22:43:38.738Z,5.8
2023-05-02T23:03:42.791Z,5.5
2023-05-02T23:13:45.153Z,5.5
2023-05-02T23:23:47.298Z,5.3
2023-05-02T23:33:49.222Z,5.3
2023-05-02T23:43:51.786Z,5
2023-05-02T23:53:53.521Z,4.9
